sensor_id;sensor_type;location;lat;lon;timestamp;P1;durP1;ratioP1;P2;durP2;ratioP2
76552;SDS011;65395;53.168;18.156;2023-02-17T00:00:53;70.50;;;31.20;;
76552;SDS011;65395;53.168;18.156;2023-02-17T00:03:21;64.90;;;30.70;;
76552;SDS011;65395;53.168;18.156;2023-02-17T00:05:49;62.80;;;30.10;;
76552;SDS011;65395;53.168;18.156;2023-02-17T00:08:16;64.40;;;30.90;;
76552;SDS011;65395;53.168;18.156;2023-02-17T00:10:43;64.00;;;30.60;;
76552;SDS011;65395;53.168;18.156;2023-02-17T00:13:09;64.40;;;30.80;;
76552;SDS011;65395;53.168;18.156;2023-02-17T00:15:37;61.50;;;30.20;;
76552;SDS011;65395;53.168;18.156;2023-02-17T00:18:04;67.80;;;30.90;;
76552;SDS011;65395;53.168;18.156;2023-02-17T00:20:31;69.20;;;31.60;;
76552;SDS011;65395;53.168;18.156;2023-02-17T00:22:58;63.40;;;31.10;;
76552;SDS011;65395;53.168;18.156;2023-02-17T00:25:25;69.40;;;32.00;;
76552;SDS011;65395;53.168;18.156;2023-02-17T00:27:52;68.40;;;32.00;;
76552;SDS011;65395;53.168;18.156;2023-02-17T00:30:18;71.30;;;32.70;;
76552;SDS011;65395;53.168;18.156;2023-02-17T00:32:46;66.80;;;32.10;;
76552;SDS011;65395;53.168;18.156;2023-02-17T00:35:12;68.10;;;33.40;;
76552;SDS011;65395;53.168;18.156;2023-02-17T00:37:41;66.90;;;31.90;;
76552;SDS011;65395;53.168;18.156;2023-02-17T00:40:11;62.20;;;30.70;;
76552;SDS011;65395;53.168;18.156;2023-02-17T00:42:39;67.80;;;31.20;;
76552;SDS011;65395;53.168;18.156;2023-02-17T00:45:06;61.30;;;29.00;;
76552;SDS011;65395;53.168;18.156;2023-02-17T00:47:33;59.60;;;28.60;;
76552;SDS011;65395;53.168;18.156;2023-02-17T00:50:00;56.50;;;26.00;;
76552;SDS011;65395;53.168;18.156;2023-02-17T00:52:27;53.40;;;25.90;;
76552;SDS011;65395;53.168;18.156;2023-02-17T00:54:54;55.00;;;26.00;;
76552;SDS011;65395;53.168;18.156;2023-02-17T00:57:20;56.20;;;26.40;;
76552;SDS011;65395;53.168;18.156;2023-02-17T00:59:50;53.20;;;25.60;;
76552;SDS011;65395;53.168;18.156;2023-02-17T01:02:19;52.60;;;24.80;;
76552;SDS011;65395;53.168;18.156;2023-02-17T01:04:46;50.30;;;25.50;;
76552;SDS011;65395;53.168;18.156;2023-02-17T01:07:14;50.10;;;25.40;;
76552;SDS011;65395;53.168;18.156;2023-02-17T01:09:41;52.20;;;26.00;;
76552;SDS011;65395;53.168;18.156;2023-02-17T01:12:09;54.80;;;27.70;;
76552;SDS011;65395;53.168;18.156;2023-02-17T01:14:37;57.10;;;28.40;;
76552;SDS011;65395;53.168;18.156;2023-02-17T01:17:04;53.40;;;26.10;;
76552;SDS011;65395;53.168;18.156;2023-02-17T01:19:31;53.30;;;26.00;;
76552;SDS011;65395;53.168;18.156;2023-02-17T01:21:58;51.70;;;26.30;;
76552;SDS011;65395;53.168;18.156;2023-02-17T01:24:24;54.10;;;25.70;;
76552;SDS011;65395;53.168;18.156;2023-02-17T01:26:51;54.00;;;25.70;;
76552;SDS011;65395;53.168;18.156;2023-02-17T01:29:18;59.70;;;27.60;;
76552;SDS011;65395;53.168;18.156;2023-02-17T01:31:45;52.80;;;25.40;;
76552;SDS011;65395;53.168;18.156;2023-02-17T01:34:12;53.70;;;24.10;;
76552;SDS011;65395;53.168;18.156;2023-02-17T01:36:38;47.70;;;25.00;;
76552;SDS011;65395;53.168;18.156;2023-02-17T01:39:05;52.40;;;26.00;;
76552;SDS011;65395;53.168;18.156;2023-02-17T01:41:31;56.40;;;27.30;;
76552;SDS011;65395;53.168;18.156;2023-02-17T01:44:03;54.60;;;26.30;;
76552;SDS011;65395;53.168;18.156;2023-02-17T01:46:32;55.40;;;27.70;;
76552;SDS011;65395;53.168;18.156;2023-02-17T01:49:00;52.00;;;25.90;;
76552;SDS011;65395;53.168;18.156;2023-02-17T01:51:30;52.30;;;25.70;;
76552;SDS011;65395;53.168;18.156;2023-02-17T01:54:05;51.50;;;25.40;;
76552;SDS011;65395;53.168;18.156;2023-02-17T01:56:38;51.30;;;25.70;;
76552;SDS011;65395;53.168;18.156;2023-02-17T01:59:10;48.10;;;23.60;;
76552;SDS011;65395;53.168;18.156;2023-02-17T02:01:42;52.60;;;24.00;;
76552;SDS011;65395;53.168;18.156;2023-02-17T02:04:11;49.10;;;23.70;;
76552;SDS011;65395;53.168;18.156;2023-02-17T02:06:41;46.90;;;23.10;;
76552;SDS011;65395;53.168;18.156;2023-02-17T02:09:12;47.80;;;22.90;;
76552;SDS011;65395;53.168;18.156;2023-02-17T02:11:46;47.50;;;23.20;;
76552;SDS011;65395;53.168;18.156;2023-02-17T02:14:15;43.40;;;21.70;;
76552;SDS011;65395;53.168;18.156;2023-02-17T02:16:51;45.20;;;23.40;;
76552;SDS011;65395;53.168;18.156;2023-02-17T02:22:39;42.90;;;22.00;;
76552;SDS011;65395;53.168;18.156;2023-02-17T02:33:55;46.50;;;20.40;;
76552;SDS011;65395;53.168;18.156;2023-02-17T02:36:27;42.20;;;21.20;;
76552;SDS011;65395;53.168;18.156;2023-02-17T02:39:03;44.00;;;20.60;;
76552;SDS011;65395;53.168;18.156;2023-02-17T02:41:39;41.20;;;20.40;;
76552;SDS011;65395;53.168;18.156;2023-02-17T02:44:08;40.50;;;20.40;;
76552;SDS011;65395;53.168;18.156;2023-02-17T02:46:38;46.10;;;20.50;;
76552;SDS011;65395;53.168;18.156;2023-02-17T02:49:05;43.30;;;21.30;;
76552;SDS011;65395;53.168;18.156;2023-02-17T02:51:39;41.70;;;20.40;;
76552;SDS011;65395;53.168;18.156;2023-02-17T02:54:22;39.20;;;19.50;;
76552;SDS011;65395;53.168;18.156;2023-02-17T02:57:08;40.60;;;20.80;;
76552;SDS011;65395;53.168;18.156;2023-02-17T02:59:54;37.70;;;20.50;;
76552;SDS011;65395;53.168;18.156;2023-02-17T03:05:24;42.50;;;20.80;;
76552;SDS011;65395;53.168;18.156;2023-02-17T03:08:02;41.40;;;19.80;;
76552;SDS011;65395;53.168;18.156;2023-02-17T03:10:45;36.90;;;19.20;;
76552;SDS011;65395;53.168;18.156;2023-02-17T03:13:14;49.40;;;21.40;;
76552;SDS011;65395;53.168;18.156;2023-02-17T03:15:41;41.70;;;21.40;;
76552;SDS011;65395;53.168;18.156;2023-02-17T03:18:08;40.20;;;21.70;;
76552;SDS011;65395;53.168;18.156;2023-02-17T03:20:37;40.30;;;20.40;;
76552;SDS011;65395;53.168;18.156;2023-02-17T03:23:08;43.80;;;19.50;;
76552;SDS011;65395;53.168;18.156;2023-02-17T03:25:35;40.80;;;19.90;;
76552;SDS011;65395;53.168;18.156;2023-02-17T03:28:03;38.00;;;19.40;;
76552;SDS011;65395;53.168;18.156;2023-02-17T03:30:30;33.80;;;18.60;;
76552;SDS011;65395;53.168;18.156;2023-02-17T03:32:56;38.00;;;18.60;;
76552;SDS011;65395;53.168;18.156;2023-02-17T03:35:23;39.20;;;19.00;;
76552;SDS011;65395;53.168;18.156;2023-02-17T03:37:50;42.30;;;19.80;;
76552;SDS011;65395;53.168;18.156;2023-02-17T03:40:17;34.90;;;19.20;;
76552;SDS011;65395;53.168;18.156;2023-02-17T03:42:44;40.40;;;19.50;;
76552;SDS011;65395;53.168;18.156;2023-02-17T03:45:11;39.40;;;19.60;;
76552;SDS011;65395;53.168;18.156;2023-02-17T03:47:37;39.30;;;20.00;;
76552;SDS011;65395;53.168;18.156;2023-02-17T03:50:04;40.60;;;19.70;;
76552;SDS011;65395;53.168;18.156;2023-02-17T03:52:31;40.40;;;20.60;;
76552;SDS011;65395;53.168;18.156;2023-02-17T03:54:59;42.00;;;20.80;;
76552;SDS011;65395;53.168;18.156;2023-02-17T03:57:26;38.90;;;20.50;;
76552;SDS011;65395;53.168;18.156;2023-02-17T03:59:52;40.80;;;20.50;;
76552;SDS011;65395;53.168;18.156;2023-02-17T04:02:20;37.90;;;19.20;;
76552;SDS011;65395;53.168;18.156;2023-02-17T04:04:47;36.90;;;20.20;;
76552;SDS011;65395;53.168;18.156;2023-02-17T04:07:14;40.20;;;19.70;;
76552;SDS011;65395;53.168;18.156;2023-02-17T04:09:41;43.60;;;20.30;;
76552;SDS011;65395;53.168;18.156;2023-02-17T04:12:07;43.60;;;20.20;;
76552;SDS011;65395;53.168;18.156;2023-02-17T04:14:34;37.90;;;19.30;;
76552;SDS011;65395;53.168;18.156;2023-02-17T04:17:01;40.40;;;20.10;;
76552;SDS011;65395;53.168;18.156;2023-02-17T04:19:27;38.10;;;19.40;;
76552;SDS011;65395;53.168;18.156;2023-02-17T04:21:54;38.30;;;19.80;;
76552;SDS011;65395;53.168;18.156;2023-02-17T04:24:21;40.40;;;20.00;;
76552;SDS011;65395;53.168;18.156;2023-02-17T04:26:48;37.30;;;19.10;;
76552;SDS011;65395;53.168;18.156;2023-02-17T04:29:14;40.80;;;19.40;;
76552;SDS011;65395;53.168;18.156;2023-02-17T04:31:41;39.00;;;19.70;;
76552;SDS011;65395;53.168;18.156;2023-02-17T04:34:07;37.10;;;19.60;;
76552;SDS011;65395;53.168;18.156;2023-02-17T04:36:34;37.60;;;18.70;;
76552;SDS011;65395;53.168;18.156;2023-02-17T04:39:01;39.40;;;18.90;;
76552;SDS011;65395;53.168;18.156;2023-02-17T04:41:28;37.70;;;20.00;;
76552;SDS011;65395;53.168;18.156;2023-02-17T04:43:55;37.10;;;19.00;;
76552;SDS011;65395;53.168;18.156;2023-02-17T04:46:21;38.20;;;18.80;;
76552;SDS011;65395;53.168;18.156;2023-02-17T04:48:48;41.40;;;19.10;;
76552;SDS011;65395;53.168;18.156;2023-02-17T04:51:15;38.40;;;19.00;;
76552;SDS011;65395;53.168;18.156;2023-02-17T04:53:41;37.00;;;18.50;;
76552;SDS011;65395;53.168;18.156;2023-02-17T04:56:08;39.00;;;20.10;;
76552;SDS011;65395;53.168;18.156;2023-02-17T04:58:35;39.80;;;19.50;;
76552;SDS011;65395;53.168;18.156;2023-02-17T05:01:02;39.20;;;21.10;;
76552;SDS011;65395;53.168;18.156;2023-02-17T05:03:29;34.50;;;19.00;;
76552;SDS011;65395;53.168;18.156;2023-02-17T05:05:55;37.60;;;19.70;;
76552;SDS011;65395;53.168;18.156;2023-02-17T05:08:22;33.60;;;18.00;;
76552;SDS011;65395;53.168;18.156;2023-02-17T05:10:49;33.70;;;17.90;;
76552;SDS011;65395;53.168;18.156;2023-02-17T05:13:17;36.80;;;19.20;;
76552;SDS011;65395;53.168;18.156;2023-02-17T05:15:45;33.70;;;17.60;;
76552;SDS011;65395;53.168;18.156;2023-02-17T05:18:12;34.60;;;17.10;;
76552;SDS011;65395;53.168;18.156;2023-02-17T05:20:39;35.50;;;18.60;;
76552;SDS011;65395;53.168;18.156;2023-02-17T05:23:06;36.40;;;19.00;;
76552;SDS011;65395;53.168;18.156;2023-02-17T05:25:33;36.10;;;17.90;;
76552;SDS011;65395;53.168;18.156;2023-02-17T05:28:00;35.90;;;18.20;;
76552;SDS011;65395;53.168;18.156;2023-02-17T05:30:27;34.00;;;18.40;;
76552;SDS011;65395;53.168;18.156;2023-02-17T05:32:53;33.50;;;17.60;;
76552;SDS011;65395;53.168;18.156;2023-02-17T05:35:20;32.90;;;17.30;;
76552;SDS011;65395;53.168;18.156;2023-02-17T05:37:46;35.50;;;18.40;;
76552;SDS011;65395;53.168;18.156;2023-02-17T05:40:13;34.30;;;17.60;;
76552;SDS011;65395;53.168;18.156;2023-02-17T05:42:40;37.10;;;17.50;;
76552;SDS011;65395;53.168;18.156;2023-02-17T05:45:07;37.00;;;18.60;;
76552;SDS011;65395;53.168;18.156;2023-02-17T05:47:34;32.20;;;17.60;;
76552;SDS011;65395;53.168;18.156;2023-02-17T05:50:00;31.90;;;16.10;;
76552;SDS011;65395;53.168;18.156;2023-02-17T05:52:27;33.40;;;16.70;;
76552;SDS011;65395;53.168;18.156;2023-02-17T05:54:54;32.70;;;17.20;;
76552;SDS011;65395;53.168;18.156;2023-02-17T05:57:21;32.90;;;17.00;;
76552;SDS011;65395;53.168;18.156;2023-02-17T05:59:48;33.80;;;17.40;;
76552;SDS011;65395;53.168;18.156;2023-02-17T06:02:14;33.80;;;17.10;;
76552;SDS011;65395;53.168;18.156;2023-02-17T06:04:41;30.60;;;16.70;;
76552;SDS011;65395;53.168;18.156;2023-02-17T06:07:08;35.40;;;17.70;;
76552;SDS011;65395;53.168;18.156;2023-02-17T06:09:34;34.50;;;16.90;;
76552;SDS011;65395;53.168;18.156;2023-02-17T06:12:01;35.00;;;16.80;;
76552;SDS011;65395;53.168;18.156;2023-02-17T06:14:28;30.90;;;17.00;;
76552;SDS011;65395;53.168;18.156;2023-02-17T06:16:55;36.30;;;18.10;;
76552;SDS011;65395;53.168;18.156;2023-02-17T06:19:22;34.00;;;17.70;;
76552;SDS011;65395;53.168;18.156;2023-02-17T06:21:49;32.90;;;16.90;;
76552;SDS011;65395;53.168;18.156;2023-02-17T06:24:16;30.20;;;15.90;;
76552;SDS011;65395;53.168;18.156;2023-02-17T06:26:43;33.10;;;16.20;;
76552;SDS011;65395;53.168;18.156;2023-02-17T06:29:10;35.40;;;17.20;;
76552;SDS011;65395;53.168;18.156;2023-02-17T06:31:36;33.70;;;17.10;;
76552;SDS011;65395;53.168;18.156;2023-02-17T06:34:04;33.60;;;17.70;;
76552;SDS011;65395;53.168;18.156;2023-02-17T06:36:30;30.10;;;16.50;;
76552;SDS011;65395;53.168;18.156;2023-02-17T06:38:57;31.50;;;16.80;;
76552;SDS011;65395;53.168;18.156;2023-02-17T06:41:24;33.00;;;16.60;;
76552;SDS011;65395;53.168;18.156;2023-02-17T06:43:51;29.30;;;15.70;;
76552;SDS011;65395;53.168;18.156;2023-02-17T06:46:17;30.70;;;15.90;;
76552;SDS011;65395;53.168;18.156;2023-02-17T06:48:44;30.00;;;16.30;;
76552;SDS011;65395;53.168;18.156;2023-02-17T06:51:11;31.10;;;17.00;;
76552;SDS011;65395;53.168;18.156;2023-02-17T06:53:38;30.30;;;16.50;;
76552;SDS011;65395;53.168;18.156;2023-02-17T06:56:05;31.90;;;16.10;;
76552;SDS011;65395;53.168;18.156;2023-02-17T06:58:31;32.50;;;16.80;;
76552;SDS011;65395;53.168;18.156;2023-02-17T07:01:00;30.70;;;16.30;;
76552;SDS011;65395;53.168;18.156;2023-02-17T07:03:27;35.40;;;17.00;;
76552;SDS011;65395;53.168;18.156;2023-02-17T07:05:56;35.50;;;17.00;;
76552;SDS011;65395;53.168;18.156;2023-02-17T07:08:24;34.90;;;17.10;;
76552;SDS011;65395;53.168;18.156;2023-02-17T07:10:51;34.20;;;17.80;;
76552;SDS011;65395;53.168;18.156;2023-02-17T07:13:18;32.80;;;16.90;;
76552;SDS011;65395;53.168;18.156;2023-02-17T07:15:45;35.30;;;17.70;;
76552;SDS011;65395;53.168;18.156;2023-02-17T07:18:11;35.10;;;18.10;;
76552;SDS011;65395;53.168;18.156;2023-02-17T07:20:38;33.20;;;17.30;;
76552;SDS011;65395;53.168;18.156;2023-02-17T07:23:05;34.20;;;17.20;;
76552;SDS011;65395;53.168;18.156;2023-02-17T07:25:32;32.60;;;18.10;;
76552;SDS011;65395;53.168;18.156;2023-02-17T07:27:59;33.90;;;17.10;;
76552;SDS011;65395;53.168;18.156;2023-02-17T07:30:26;35.00;;;17.70;;
76552;SDS011;65395;53.168;18.156;2023-02-17T07:32:53;32.10;;;17.00;;
76552;SDS011;65395;53.168;18.156;2023-02-17T07:35:19;34.30;;;17.40;;
76552;SDS011;65395;53.168;18.156;2023-02-17T07:37:46;32.00;;;16.20;;
76552;SDS011;65395;53.168;18.156;2023-02-17T07:40:13;32.80;;;17.50;;
76552;SDS011;65395;53.168;18.156;2023-02-17T07:42:40;32.90;;;17.40;;
76552;SDS011;65395;53.168;18.156;2023-02-17T07:45:07;36.80;;;18.70;;
76552;SDS011;65395;53.168;18.156;2023-02-17T07:47:33;33.10;;;18.20;;
76552;SDS011;65395;53.168;18.156;2023-02-17T07:50:01;33.60;;;17.90;;
76552;SDS011;65395;53.168;18.156;2023-02-17T07:52:28;32.90;;;18.00;;
76552;SDS011;65395;53.168;18.156;2023-02-17T07:54:55;35.70;;;18.20;;
76552;SDS011;65395;53.168;18.156;2023-02-17T07:57:22;35.10;;;18.30;;
76552;SDS011;65395;53.168;18.156;2023-02-17T07:59:48;32.10;;;16.40;;
76552;SDS011;65395;53.168;18.156;2023-02-17T08:02:15;31.70;;;17.10;;
76552;SDS011;65395;53.168;18.156;2023-02-17T08:04:42;36.40;;;18.00;;
76552;SDS011;65395;53.168;18.156;2023-02-17T08:07:09;31.40;;;17.50;;
76552;SDS011;65395;53.168;18.156;2023-02-17T08:09:36;33.80;;;18.00;;
76552;SDS011;65395;53.168;18.156;2023-02-17T08:12:14;37.30;;;18.40;;
76552;SDS011;65395;53.168;18.156;2023-02-17T08:14:55;37.60;;;20.30;;
76552;SDS011;65395;53.168;18.156;2023-02-17T08:17:23;38.70;;;19.90;;
76552;SDS011;65395;53.168;18.156;2023-02-17T08:19:49;40.40;;;20.90;;
76552;SDS011;65395;53.168;18.156;2023-02-17T08:22:16;42.00;;;19.90;;
76552;SDS011;65395;53.168;18.156;2023-02-17T08:24:43;41.70;;;21.20;;
76552;SDS011;65395;53.168;18.156;2023-02-17T08:27:10;43.50;;;20.30;;
76552;SDS011;65395;53.168;18.156;2023-02-17T08:29:38;42.30;;;21.50;;
76552;SDS011;65395;53.168;18.156;2023-02-17T08:32:05;38.70;;;19.70;;
76552;SDS011;65395;53.168;18.156;2023-02-17T08:34:32;44.60;;;21.20;;
76552;SDS011;65395;53.168;18.156;2023-02-17T08:37:00;39.50;;;20.40;;
76552;SDS011;65395;53.168;18.156;2023-02-17T08:39:29;41.30;;;20.90;;
76552;SDS011;65395;53.168;18.156;2023-02-17T08:41:57;42.20;;;21.30;;
76552;SDS011;65395;53.168;18.156;2023-02-17T08:44:25;40.10;;;21.00;;
76552;SDS011;65395;53.168;18.156;2023-02-17T08:46:52;40.80;;;21.30;;
76552;SDS011;65395;53.168;18.156;2023-02-17T08:49:21;41.90;;;21.10;;
76552;SDS011;65395;53.168;18.156;2023-02-17T08:51:50;39.40;;;20.10;;
76552;SDS011;65395;53.168;18.156;2023-02-17T08:54:17;40.30;;;20.60;;
76552;SDS011;65395;53.168;18.156;2023-02-17T08:56:44;39.90;;;19.90;;
76552;SDS011;65395;53.168;18.156;2023-02-17T08:59:12;41.10;;;20.50;;
76552;SDS011;65395;53.168;18.156;2023-02-17T09:01:39;38.80;;;20.30;;
76552;SDS011;65395;53.168;18.156;2023-02-17T09:04:07;41.40;;;20.70;;
76552;SDS011;65395;53.168;18.156;2023-02-17T09:06:37;36.80;;;19.60;;
76552;SDS011;65395;53.168;18.156;2023-02-17T09:09:06;34.10;;;18.60;;
76552;SDS011;65395;53.168;18.156;2023-02-17T09:11:35;37.20;;;19.20;;
76552;SDS011;65395;53.168;18.156;2023-02-17T09:14:03;34.20;;;18.70;;
76552;SDS011;65395;53.168;18.156;2023-02-17T09:16:30;37.00;;;18.70;;
76552;SDS011;65395;53.168;18.156;2023-02-17T09:18:57;36.10;;;19.40;;
76552;SDS011;65395;53.168;18.156;2023-02-17T09:21:24;38.20;;;20.00;;
76552;SDS011;65395;53.168;18.156;2023-02-17T09:23:51;36.70;;;19.50;;
76552;SDS011;65395;53.168;18.156;2023-02-17T09:26:19;37.70;;;18.90;;
76552;SDS011;65395;53.168;18.156;2023-02-17T09:28:46;34.80;;;18.70;;
76552;SDS011;65395;53.168;18.156;2023-02-17T09:31:21;35.30;;;19.20;;
76552;SDS011;65395;53.168;18.156;2023-02-17T09:33:50;37.60;;;20.10;;
76552;SDS011;65395;53.168;18.156;2023-02-17T09:36:18;41.80;;;20.00;;
76552;SDS011;65395;53.168;18.156;2023-02-17T09:38:46;40.20;;;19.70;;
76552;SDS011;65395;53.168;18.156;2023-02-17T09:41:20;39.30;;;19.90;;
76552;SDS011;65395;53.168;18.156;2023-02-17T09:43:50;40.20;;;20.50;;
76552;SDS011;65395;53.168;18.156;2023-02-17T09:46:29;38.10;;;20.20;;
76552;SDS011;65395;53.168;18.156;2023-02-17T09:49:02;40.50;;;19.70;;
76552;SDS011;65395;53.168;18.156;2023-02-17T09:51:35;39.70;;;20.30;;
76552;SDS011;65395;53.168;18.156;2023-02-17T09:54:09;40.50;;;19.80;;
76552;SDS011;65395;53.168;18.156;2023-02-17T09:56:44;41.00;;;21.00;;
76552;SDS011;65395;53.168;18.156;2023-02-17T09:59:19;41.10;;;19.50;;
76552;SDS011;65395;53.168;18.156;2023-02-17T10:01:51;37.40;;;20.30;;
76552;SDS011;65395;53.168;18.156;2023-02-17T10:04:22;39.00;;;20.10;;
76552;SDS011;65395;53.168;18.156;2023-02-17T10:09:39;37.20;;;19.90;;
76552;SDS011;65395;53.168;18.156;2023-02-17T10:12:17;38.00;;;19.80;;
76552;SDS011;65395;53.168;18.156;2023-02-17T10:14:52;39.80;;;19.50;;
76552;SDS011;65395;53.168;18.156;2023-02-17T10:20:23;38.30;;;19.30;;
76552;SDS011;65395;53.168;18.156;2023-02-17T10:25:50;39.00;;;18.70;;
76552;SDS011;65395;53.168;18.156;2023-02-17T10:28:48;39.50;;;18.90;;
76552;SDS011;65395;53.168;18.156;2023-02-17T10:34:25;35.10;;;18.90;;
76552;SDS011;65395;53.168;18.156;2023-02-17T10:37:03;34.70;;;18.20;;
76552;SDS011;65395;53.168;18.156;2023-02-17T10:39:47;32.40;;;18.50;;
76552;SDS011;65395;53.168;18.156;2023-02-17T10:42:19;33.60;;;17.60;;
76552;SDS011;65395;53.168;18.156;2023-02-17T10:44:49;30.60;;;17.10;;
76552;SDS011;65395;53.168;18.156;2023-02-17T10:47:19;34.70;;;18.00;;
76552;SDS011;65395;53.168;18.156;2023-02-17T10:49:48;30.10;;;16.80;;
76552;SDS011;65395;53.168;18.156;2023-02-17T10:52:18;30.10;;;17.10;;
76552;SDS011;65395;53.168;18.156;2023-02-17T10:54:54;32.10;;;16.80;;
76552;SDS011;65395;53.168;18.156;2023-02-17T10:57:25;31.50;;;17.10;;
76552;SDS011;65395;53.168;18.156;2023-02-17T10:59:58;29.40;;;16.50;;
76552;SDS011;65395;53.168;18.156;2023-02-17T11:02:33;30.50;;;17.40;;
76552;SDS011;65395;53.168;18.156;2023-02-17T11:05:05;27.10;;;16.30;;
76552;SDS011;65395;53.168;18.156;2023-02-17T11:07:34;30.40;;;16.70;;
76552;SDS011;65395;53.168;18.156;2023-02-17T11:10:37;28.30;;;16.30;;
76552;SDS011;65395;53.168;18.156;2023-02-17T11:12:54;32.10;;;17.00;;
76552;SDS011;65395;53.168;18.156;2023-02-17T11:15:25;30.60;;;16.10;;
76552;SDS011;65395;53.168;18.156;2023-02-17T11:17:55;30.10;;;16.80;;
76552;SDS011;65395;53.168;18.156;2023-02-17T11:23:00;30.00;;;16.20;;
76552;SDS011;65395;53.168;18.156;2023-02-17T11:25:31;25.70;;;15.10;;
76552;SDS011;65395;53.168;18.156;2023-02-17T11:28:01;29.00;;;16.20;;
76552;SDS011;65395;53.168;18.156;2023-02-17T11:30:31;31.10;;;16.40;;
76552;SDS011;65395;53.168;18.156;2023-02-17T11:33:09;29.70;;;15.90;;
76552;SDS011;65395;53.168;18.156;2023-02-17T11:35:43;28.20;;;15.70;;
76552;SDS011;65395;53.168;18.156;2023-02-17T11:38:17;27.60;;;15.30;;
76552;SDS011;65395;53.168;18.156;2023-02-17T11:40:52;24.70;;;15.10;;
76552;SDS011;65395;53.168;18.156;2023-02-17T11:43:25;29.70;;;15.50;;
76552;SDS011;65395;53.168;18.156;2023-02-17T11:45:59;30.10;;;15.60;;
76552;SDS011;65395;53.168;18.156;2023-02-17T11:48:42;26.20;;;14.90;;
76552;SDS011;65395;53.168;18.156;2023-02-17T11:51:32;24.80;;;14.30;;
76552;SDS011;65395;53.168;18.156;2023-02-17T11:54:30;24.40;;;15.00;;
76552;SDS011;65395;53.168;18.156;2023-02-17T11:57:11;27.00;;;15.30;;
76552;SDS011;65395;53.168;18.156;2023-02-17T12:05:48;25.20;;;14.20;;
76552;SDS011;65395;53.168;18.156;2023-02-17T12:08:29;23.40;;;14.80;;
76552;SDS011;65395;53.168;18.156;2023-02-17T12:14:07;27.30;;;15.20;;
76552;SDS011;65395;53.168;18.156;2023-02-17T12:16:54;26.20;;;15.90;;
76552;SDS011;65395;53.168;18.156;2023-02-17T12:19:33;22.90;;;14.20;;
76552;SDS011;65395;53.168;18.156;2023-02-17T12:24:57;22.50;;;14.60;;
76552;SDS011;65395;53.168;18.156;2023-02-17T12:35:52;23.00;;;13.80;;
76552;SDS011;65395;53.168;18.156;2023-02-17T12:41:05;22.80;;;14.40;;
76552;SDS011;65395;53.168;18.156;2023-02-17T12:46:19;23.50;;;13.60;;
76552;SDS011;65395;53.168;18.156;2023-02-17T12:48:54;23.60;;;13.90;;
76552;SDS011;65395;53.168;18.156;2023-02-17T12:51:29;22.30;;;14.10;;
76552;SDS011;65395;53.168;18.156;2023-02-17T12:54:07;22.60;;;13.90;;
76552;SDS011;65395;53.168;18.156;2023-02-17T12:56:44;21.60;;;13.60;;
76552;SDS011;65395;53.168;18.156;2023-02-17T12:59:18;22.20;;;13.00;;
76552;SDS011;65395;53.168;18.156;2023-02-17T13:01:53;22.60;;;13.30;;
76552;SDS011;65395;53.168;18.156;2023-02-17T13:04:26;21.40;;;13.00;;
76552;SDS011;65395;53.168;18.156;2023-02-17T13:06:58;23.20;;;13.60;;
76552;SDS011;65395;53.168;18.156;2023-02-17T13:09:33;18.70;;;12.80;;
76552;SDS011;65395;53.168;18.156;2023-02-17T13:12:16;19.40;;;12.70;;
76552;SDS011;65395;53.168;18.156;2023-02-17T13:15:01;19.40;;;11.80;;
76552;SDS011;65395;53.168;18.156;2023-02-17T13:17:32;17.80;;;11.70;;
76552;SDS011;65395;53.168;18.156;2023-02-17T13:20:11;17.10;;;11.70;;
76552;SDS011;65395;53.168;18.156;2023-02-17T13:23:02;23.50;;;13.50;;
76552;SDS011;65395;53.168;18.156;2023-02-17T13:25:32;22.40;;;13.30;;
76552;SDS011;65395;53.168;18.156;2023-02-17T13:28:01;19.90;;;12.70;;
76552;SDS011;65395;53.168;18.156;2023-02-17T13:30:42;16.70;;;11.40;;
76552;SDS011;65395;53.168;18.156;2023-02-17T13:35:53;16.80;;;10.70;;
76552;SDS011;65395;53.168;18.156;2023-02-17T13:38:28;16.10;;;10.40;;
76552;SDS011;65395;53.168;18.156;2023-02-17T13:40:57;14.90;;;9.30;;
76552;SDS011;65395;53.168;18.156;2023-02-17T13:43:27;13.50;;;9.10;;
76552;SDS011;65395;53.168;18.156;2023-02-17T13:45:58;15.10;;;10.20;;
76552;SDS011;65395;53.168;18.156;2023-02-17T13:48:30;15.10;;;9.70;;
76552;SDS011;65395;53.168;18.156;2023-02-17T13:50:59;13.90;;;9.40;;
76552;SDS011;65395;53.168;18.156;2023-02-17T13:53:34;13.60;;;9.50;;
76552;SDS011;65395;53.168;18.156;2023-02-17T13:56:04;15.50;;;10.10;;
76552;SDS011;65395;53.168;18.156;2023-02-17T13:58:35;13.00;;;9.00;;
76552;SDS011;65395;53.168;18.156;2023-02-17T14:01:05;13.00;;;9.00;;
76552;SDS011;65395;53.168;18.156;2023-02-17T14:03:47;14.30;;;9.30;;
76552;SDS011;65395;53.168;18.156;2023-02-17T14:06:25;13.20;;;9.90;;
76552;SDS011;65395;53.168;18.156;2023-02-17T14:08:55;13.80;;;9.30;;
76552;SDS011;65395;53.168;18.156;2023-02-17T14:11:23;18.50;;;9.50;;
76552;SDS011;65395;53.168;18.156;2023-02-17T14:13:54;13.10;;;9.20;;
76552;SDS011;65395;53.168;18.156;2023-02-17T14:19:03;11.60;;;8.80;;
76552;SDS011;65395;53.168;18.156;2023-02-17T14:21:41;13.80;;;9.50;;
76552;SDS011;65395;53.168;18.156;2023-02-17T14:26:54;13.80;;;9.90;;
76552;SDS011;65395;53.168;18.156;2023-02-17T14:29:24;12.10;;;9.00;;
76552;SDS011;65395;53.168;18.156;2023-02-17T14:31:51;13.20;;;9.30;;
76552;SDS011;65395;53.168;18.156;2023-02-17T14:34:24;13.40;;;9.40;;
76552;SDS011;65395;53.168;18.156;2023-02-17T14:36:54;13.40;;;9.50;;
76552;SDS011;65395;53.168;18.156;2023-02-17T14:39:32;14.50;;;9.50;;
76552;SDS011;65395;53.168;18.156;2023-02-17T14:41:58;12.00;;;9.20;;
76552;SDS011;65395;53.168;18.156;2023-02-17T14:44:25;14.20;;;9.60;;
76552;SDS011;65395;53.168;18.156;2023-02-17T14:46:52;11.70;;;9.00;;
76552;SDS011;65395;53.168;18.156;2023-02-17T14:49:19;11.90;;;8.70;;
76552;SDS011;65395;53.168;18.156;2023-02-17T14:51:46;12.30;;;9.00;;
76552;SDS011;65395;53.168;18.156;2023-02-17T14:54:14;12.60;;;8.80;;
76552;SDS011;65395;53.168;18.156;2023-02-17T14:56:44;10.70;;;8.40;;
76552;SDS011;65395;53.168;18.156;2023-02-17T14:59:17;11.20;;;8.40;;
76552;SDS011;65395;53.168;18.156;2023-02-17T15:01:43;12.30;;;8.80;;
76552;SDS011;65395;53.168;18.156;2023-02-17T15:04:10;11.10;;;8.70;;
76552;SDS011;65395;53.168;18.156;2023-02-17T15:06:39;10.50;;;7.90;;
76552;SDS011;65395;53.168;18.156;2023-02-17T15:09:12;10.40;;;7.90;;
76552;SDS011;65395;53.168;18.156;2023-02-17T15:11:41;9.80;;;7.70;;
76552;SDS011;65395;53.168;18.156;2023-02-17T15:14:12;9.20;;;7.30;;
76552;SDS011;65395;53.168;18.156;2023-02-17T15:16:41;11.30;;;7.70;;
76552;SDS011;65395;53.168;18.156;2023-02-17T15:19:08;9.90;;;7.60;;
76552;SDS011;65395;53.168;18.156;2023-02-17T15:21:37;9.50;;;7.10;;
76552;SDS011;65395;53.168;18.156;2023-02-17T15:24:11;9.20;;;7.10;;
76552;SDS011;65395;53.168;18.156;2023-02-17T15:26:41;8.80;;;6.80;;
76552;SDS011;65395;53.168;18.156;2023-02-17T15:29:17;8.10;;;6.40;;